Time;durP1;ratioP1;P1;durP2;ratioP2;P2;SDS_P1;SDS_P2;PMS_P1;PMS_P2;Temp;Humidity;BMP_temperature;BMP_pressure;BME280_temperature;BME280_humidity;BME280_pressure;Samples;Min_cycle;Max_cycle;Signal;HPM_P1;HPM_P2
2023/01/05 00:00:22;;;;;;;;;;;;;;;-146.02;100.00;65310.94;5073757;28;20353;-72
2023/01/05 00:03:46;;;;;;;;;;;;;;;-146.02;100.00;65310.94;5074346;28;19920;-74
2023/01/05 00:07:10;;;;;;;;;;;;;;;-146.02;100.00;65310.94;5063687;28;20427;-71
2023/01/05 00:25:35;;;;;;;;;;;;;;;-146.02;100.00;65310.94;5075223;28;19928;-75
2023/01/05 00:28:59;;;;;;;;;;;;;;;-146.02;100.00;65310.94;5072110;28;20075;-74
2023/01/05 00:32:23;;;;;;;;;;;;;;;-146.02;100.00;65310.94;5020641;28;20061;-74
2023/01/05 00:35:46;;;;;;;;;;;;;;;-146.02;100.00;65310.94;5067298;28;19960;-75
2023/01/05 00:39:10;;;;;;;;;;;;;;;-146.02;100.00;65310.94;5057293;28;20364;-75
2023/01/05 00:42:34;;;;;;;;;;;;;;;-146.02;100.00;65310.94;5062013;28;19917;-76
2023/01/05 00:45:58;;;;;;;;;;;;;;;-146.02;100.00;65310.94;5037099;28;20006;-73
2023/01/05 00:49:22;;;;;;;;;;;;;;;-146.02;100.00;65310.94;5055984;28;19980;-73
2023/01/05 00:52:45;;;;;;;;;;;;;;;-146.02;100.00;65310.94;5076348;28;19966;-72
2023/01/05 00:56:09;;;;;;;;;;;;;;;-146.02;100.00;65310.94;5073912;28;19913;-75
2023/01/05 00:59:33;;;;;;;;;;;;;;;-146.02;100.00;65310.94;5041845;28;19916;-73
2023/01/05 01:02:57;;;;;;;;;;;;;;;-146.02;100.00;65310.94;5072320;28;20066;-72
2023/01/05 01:06:22;;;;;;;;;;;;;;;-146.02;100.00;65310.94;5072749;28;20364;-75
2023/01/05 01:09:45;;;;;;;;;;;;;;;-146.02;100.00;65310.94;5055480;28;20011;-74
2023/01/05 01:13:09;;;;;;;;;;;;;;;-146.02;100.00;65310.94;5073966;28;19916;-74
2023/01/05 01:16:33;;;;;;;;;;;;;;;-146.02;100.00;65310.94;5058602;28;20002;-73
2023/01/05 01:19:59;;;;;;;;;;;;;;;-146.02;100.00;65310.94;5073048;28;19916;-74
2023/01/05 01:23:23;;;;;;;;;;;;;;;-146.02;100.00;65310.94;5055551;28;19916;-74
2023/01/05 01:26:47;;;;;;;;;;;;;;;-146.02;100.00;65310.94;5072453;28;19920;-73
2023/01/05 01:30:11;;;;;;;;;;;;;;;-146.02;100.00;65310.94;5067361;28;19924;-72
2023/01/05 01:33:37;;;;;;;;;;;;;;;-146.02;100.00;65310.94;5068634;28;19913;-73
2023/01/05 01:37:01;;;;;;;;;;;;;;;-146.02;100.00;65310.94;5070371;28;19921;-70
2023/01/05 01:40:25;;;;;;;;;;;;;;;-146.02;100.00;65310.94;5045363;28;20057;-70
2023/01/05 01:43:53;;;;;;;;;;;;;;;-146.02;100.00;65310.94;5064478;28;19982;-70
2023/01/05 01:47:35;;;;;;;;;;;;;;;-146.02;100.00;65310.94;5063513;28;20011;-71
2023/01/05 01:51:01;;;;;;;;;;;;;;;-146.02;100.00;65310.94;5063293;28;19917;-71
2023/01/05 01:54:25;;;;;;;;;;;;;;;-146.02;100.00;65310.94;5063243;28;19916;-71
2023/01/05 01:57:50;;;;;;;;;;;;;;;-146.02;100.00;65310.94;5034867;28;19912;-72
2023/01/05 02:01:14;;;;;;;;;;;;;;;-146.02;100.00;65310.94;5051714;28;20327;-72
2023/01/05 02:04:38;;;;;;;;;;;;;;;-146.02;100.00;65310.94;5045598;28;19917;-72
2023/01/05 02:08:02;;;;;;;;;;;;;;;-146.02;100.00;65310.94;5052435;28;19920;-72
2023/01/05 02:11:29;;;;;;;;;;;;;;;-146.02;100.00;65310.94;5060850;28;19955;-71
2023/01/05 02:14:58;;;;;;;;;;;;;;;-146.02;100.00;65310.94;5072291;28;19913;-71
2023/01/05 02:18:22;;;;;;;;;;;;;;;-146.02;100.00;65310.94;5072466;28;19912;-71
2023/01/05 02:21:46;;;;;;;;;;;;;;;-146.02;100.00;65310.94;5072335;28;19921;-71
2023/01/05 02:25:13;;;;;;;;;;;;;;;-146.02;100.00;65310.94;5037517;28;19924;-72
2023/01/05 02:28:56;;;;;;;;;;;;;;;-146.02;100.00;65310.94;5053018;28;20054;-71
2023/01/05 02:32:38;;;;;;;;;;;;;;;-146.02;100.00;65310.94;5052390;28;19920;-72
2023/01/05 02:36:11;;;;;;;;;;;;;;;-146.02;100.00;65310.94;5052107;28;19974;-72
2023/01/05 02:39:56;;;;;;;;;;;;;;;-146.02;100.00;65310.94;5052122;28;19920;-72
2023/01/05 02:43:20;;;;;;;;;;;;;;;-146.02;100.00;65310.94;5051261;28;19927;-71
2023/01/05 02:46:44;;;;;;;;;;;;;;;-146.02;100.00;65310.94;5034142;28;19916;-71
2023/01/05 02:50:14;;;;;;;;;;;;;;;-146.02;100.00;65310.94;5052511;28;19912;-71
2023/01/05 02:53:45;;;;;;;;;;;;;;;-146.02;100.00;65310.94;5034699;28;19913;-71
2023/01/05 02:57:10;;;;;;;;;;;;;;;-146.02;100.00;65310.94;5052623;28;20137;-72
2023/01/05 03:00:38;;;;;;;;;;;;;;;-146.02;100.00;65310.94;5052171;28;19919;-72
2023/01/05 03:04:12;;;;;;;;;;;;;;;-146.02;100.00;65310.94;5051594;28;19920;-72
2023/01/05 03:07:39;;;;;;;;;;;;;;;-146.02;100.00;65310.94;5041700;28;20439;-71
2023/01/05 03:14:53;;;;;;;;;;;;;;;-146.02;100.00;65310.94;5075208;28;19916;-72
2023/01/05 03:18:19;;;;;;;;;;;;;;;-146.02;100.00;65310.94;5075552;28;19916;-71
2023/01/05 03:36:42;;;;;;;;;;;;;;;-146.02;100.00;65310.94;5055941;28;19923;-72
2023/01/05 03:40:10;;;;;;;;;;;;;;;-146.02;100.00;65310.94;5055954;28;19921;-72
2023/01/05 03:43:37;;;;;;;;;;;;;;;-146.02;100.00;65310.94;5055545;28;20469;-72
2023/01/05 03:47:01;;;;;;;;;;;;;;;-146.02;100.00;65310.94;5055640;28;20016;-72
2023/01/05 03:50:25;;;;;;;;;;;;;;;-146.02;100.00;65310.94;5038016;28;19939;-72
2023/01/05 03:53:49;;;;;;;;;;;;;;;-146.02;100.00;65310.94;5055879;28;19939;-71
2023/01/05 03:57:12;;;;;;;;;;;;;;;-146.02;100.00;65310.94;5055855;28;20289;-71
2023/01/05 04:00:36;;;;;;;;;;;;;;;-146.02;100.00;65310.94;5055549;28;19924;-71
2023/01/05 04:04:00;;;;;;;;;;;;;;;-146.02;100.00;65310.94;5064243;28;20003;-71
2023/01/05 04:07:24;;;;;;;;;;;;;;;-146.02;100.00;65310.94;5057785;28;19912;-72
2023/01/05 04:10:53;;;;;;;;;;;;;;;-146.02;100.00;65310.94;5075640;28;19920;-72
2023/01/05 04:14:16;;;;;;;;;;;;;;;-146.02;100.00;65310.94;5088615;28;20352;-72
2023/01/05 04:17:40;;;;;;;;;;;;;;;-146.02;100.00;65310.94;5075562;28;20372;-72
2023/01/05 04:21:04;;;;;;;;;;;;;;;-146.02;100.00;65310.94;5075205;28;20361;-72
2023/01/05 04:24:28;;;;;;;;;;;;;;;-146.02;100.00;65310.94;5074212;28;20250;-72
2023/01/05 04:27:52;;;;;;;;;;;;;;;-146.02;100.00;65310.94;5057152;28;19935;-72
2023/01/05 04:31:16;;;;;;;;;;;;;;;-146.02;100.00;65310.94;5074849;28;19916;-72
2023/01/05 04:34:40;;;;;;;;;;;;;;;-146.02;100.00;65310.94;5075123;28;19912;-72
2023/01/05 04:38:03;;;;;;;;;;;;;;;-146.02;100.00;65310.94;5075054;28;19913;-71
2023/01/05 04:41:27;;;;;;;;;;;;;;;-146.02;100.00;65310.94;5074939;28;19919;-71
2023/01/05 04:44:52;;;;;;;;;;;;;;;-146.02;100.00;65310.94;5056744;28;19925;-71
2023/01/05 04:48:16;;;;;;;;;;;;;;;-146.02;100.00;65310.94;5056724;28;19974;-71
2023/01/05 04:51:40;;;;;;;;;;;;;;;-146.02;100.00;65310.94;5041121;28;20280;-72
2023/01/05 04:55:04;;;;;;;;;;;;;;;-146.02;100.00;65310.94;5071080;28;20311;-71
2023/01/05 04:58:28;;;;;;;;;;;;;;;-146.02;100.00;65310.94;5075451;28;19951;-70
2023/01/05 05:01:52;;;;;;;;;;;;;;;-146.02;100.00;65310.94;5075094;28;19920;-70
2023/01/05 05:05:16;;;;;;;;;;;;;;;-146.02;100.00;65310.94;5056724;28;19920;-70
2023/01/05 05:08:40;;;;;;;;;;;;;;;-146.02;100.00;65310.94;5074462;28;19919;-71
2023/01/05 05:12:04;;;;;;;;;;;;;;;-146.02;100.00;65310.94;5074352;28;19920;-71
2023/01/05 05:15:28;;;;;;;;;;;;;;;-146.02;100.00;65310.94;5094357;28;20105;-71
2023/01/05 05:18:52;;;;;;;;;;;;;;;-146.02;100.00;65310.94;5059508;28;19919;-71
2023/01/05 05:22:16;;;;;;;;;;;;;;;-146.02;100.00;65310.94;5094396;28;20360;-71
2023/01/05 05:25:40;;;;;;;;;;;;;;;-146.02;100.00;65310.94;5094310;28;19916;-71
2023/01/05 05:29:04;;;;;;;;;;;;;;;-146.02;100.00;65310.94;5076064;28;19912;-71
2023/01/05 05:32:27;;;;;;;;;;;;;;;-146.02;100.00;65310.94;5036289;28;20353;-71
2023/01/05 05:35:51;;;;;;;;;;;;;;;-146.02;100.00;65310.94;5053791;28;20381;-72
2023/01/05 05:39:15;;;;;;;;;;;;;;;-146.02;100.00;65310.94;5053740;28;19913;-71
2023/01/05 05:42:40;;;;;;;;;;;;;;;-146.02;100.00;65310.94;5052627;28;20054;-71
2023/01/05 05:46:04;;;;;;;;;;;;;;;-146.02;100.00;65310.94;5052643;28;19927;-71
2023/01/05 05:49:28;;;;;;;;;;;;;;;-146.02;100.00;65310.94;5053643;28;19920;-72
2023/01/05 05:52:51;;;;;;;;;;;;;;;-146.02;100.00;65310.94;5053520;28;19930;-71
2023/01/05 05:56:16;;;;;;;;;;;;;;;-146.02;100.00;65310.94;5053730;28;19999;-70
2023/01/05 05:59:39;;;;;;;;;;;;;;;-146.02;100.00;65310.94;5040055;28;20285;-70
2023/01/05 06:03:03;;;;;;;;;;;;;;;-146.02;100.00;65310.94;5055426;28;19920;-71
2023/01/05 06:06:27;;;;;;;;;;;;;;;-146.02;100.00;65310.94;5073492;28;20341;-71
2023/01/05 06:09:51;;;;;;;;;;;;;;;-146.02;100.00;65310.94;5055431;28;19912;-71
2023/01/05 06:13:16;;;;;;;;;;;;;;;-146.02;100.00;65310.94;5055054;28;19913;-71
2023/01/05 06:16:39;;;;;;;;;;;;;;;-146.02;100.00;65310.94;5073428;28;20018;-71
2023/01/05 06:20:04;;;;;;;;;;;;;;;-146.02;100.00;65310.94;5073179;28;19992;-71
2023/01/05 06:23:28;;;;;;;;;;;;;;;-146.02;100.00;65310.94;5073172;28;20006;-71
2023/01/05 06:26:52;;;;;;;;;;;;;;;-146.02;100.00;65310.94;5073204;28;20000;-71
2023/01/05 06:30:16;;;;;;;;;;;;;;;-146.02;100.00;65310.94;5051495;28;19917;-72
2023/01/05 06:33:40;;;;;;;;;;;;;;;-146.02;100.00;65310.94;5052981;28;19912;-71
2023/01/05 06:37:05;;;;;;;;;;;;;;;-146.02;100.00;65310.94;5052927;28;19927;-71
2023/01/05 06:40:29;;;;;;;;;;;;;;;-146.02;100.00;65310.94;5052950;28;20015;-71
2023/01/05 06:43:52;;;;;;;;;;;;;;;-146.02;100.00;65310.94;5034449;28;20012;-71
2023/01/05 06:47:16;;;;;;;;;;;;;;;-146.02;100.00;65310.94;5054725;28;19921;-71
2023/01/05 06:50:40;;;;;;;;;;;;;;;-146.02;100.00;65310.94;5038795;28;19913;-71
2023/01/05 06:54:04;;;;;;;;;;;;;;;-146.02;100.00;65310.94;5057156;28;19920;-71
2023/01/05 06:57:28;;;;;;;;;;;;;;;-146.02;100.00;65310.94;5038857;28;20313;-71
2023/01/05 07:00:52;;;;;;;;;;;;;;;-146.02;100.00;65310.94;5070884;28;19912;-71
2023/01/05 07:04:17;;;;;;;;;;;;;;;-146.02;100.00;65310.94;5076617;28;20016;-71
2023/01/05 07:07:40;;;;;;;;;;;;;;;-146.02;100.00;65310.94;5076559;28;19951;-71
2023/01/05 07:11:04;;;;;;;;;;;;;;;-146.02;100.00;65310.94;5076354;28;19919;-71
2023/01/05 07:14:28;;;;;;;;;;;;;;;-146.02;100.00;65310.94;5076344;28;19977;-71
2023/01/05 07:17:52;;;;;;;;;;;;;;;-146.02;100.00;65310.94;5058317;28;20007;-71
2023/01/05 07:21:16;;;;;;;;;;;;;;;-146.02;100.00;65310.94;5076537;28;19916;-70
2023/01/05 07:24:40;;;;;;;;;;;;;;;-146.02;100.00;65310.94;5075546;28;19917;-71
2023/01/05 07:28:04;;;;;;;;;;;;;;;-146.02;100.00;65310.94;5076311;28;19991;-71
2023/01/05 07:31:27;;;;;;;;;;;;;;;-146.02;100.00;65310.94;5056778;28;20327;-71
2023/01/05 07:34:51;;;;;;;;;;;;;;;-146.02;100.00;65310.94;5038200;28;19961;-71
2023/01/05 07:38:15;;;;;;;;;;;;;;;-146.02;100.00;65310.94;5056038;28;19913;-69
2023/01/05 07:41:39;;;;;;;;;;;;;;;-146.02;100.00;65310.94;5055924;28;20284;-69
2023/01/05 07:45:03;;;;;;;;;;;;;;;-146.02;100.00;65310.94;5037645;28;20300;-69
2023/01/05 07:48:27;;;;;;;;;;;;;;;-146.02;100.00;65310.94;5056466;28;19917;-69
2023/01/05 07:51:51;;;;;;;;;;;;;;;-146.02;100.00;65310.94;5055682;28;19926;-70
2023/01/05 07:55:15;;;;;;;;;;;;;;;-146.02;100.00;65310.94;5038005;28;19962;-68
2023/01/05 07:58:39;;;;;;;;;;;;;;;-146.02;100.00;65310.94;5074251;28;20359;-68
2023/01/05 08:02:03;;;;;;;;;;;;;;;-146.02;100.00;65310.94;5075533;28;19995;-68
2023/01/05 08:05:32;;;;;;;;;;;;;;;-146.02;100.00;65310.94;5057432;28;19951;-68
2023/01/05 08:08:56;;;;;;;;;;;;;;;-146.02;100.00;65310.94;5057305;28;19982;-68
2023/01/05 08:12:20;;;;;;;;;;;;;;;-146.02;100.00;65310.94;5075538;28;20356;-67
2023/01/05 08:15:44;;;;;;;;;;;;;;;-146.02;100.00;65310.94;5055446;28;19913;-68
2023/01/05 08:19:08;;;;;;;;;;;;;;;-146.02;100.00;65310.94;5037598;28;19923;-68
2023/01/05 08:22:32;;;;;;;;;;;;;;;-146.02;100.00;65310.94;5055469;28;19912;-69
2023/01/05 08:25:56;;;;;;;;;;;;;;;-146.02;100.00;65310.94;5056172;28;19917;-68
2023/01/05 08:29:20;;;;;;;;;;;;;;;-146.02;100.00;65310.94;5057273;28;20022;-68
2023/01/05 08:32:44;;;;;;;;;;;;;;;-146.02;100.00;65310.94;5074865;28;19979;-68
2023/01/05 08:36:09;;;;;;;;;;;;;;;-146.02;100.00;65310.94;5061347;28;19939;-67
2023/01/05 08:39:34;;;;;;;;;;;;;;;-146.02;100.00;65310.94;5074489;28;19913;-68
2023/01/05 08:42:58;;;;;;;;;;;;;;;-146.02;100.00;65310.94;5074608;28;19920;-67
2023/01/05 08:46:23;;;;;;;;;;;;;;;-146.02;100.00;65310.94;5056667;28;19924;-68
2023/01/05 08:49:48;;;;;;;;;;;;;;;-146.02;100.00;65310.94;5054653;28;19963;-68
2023/01/05 08:53:12;;;;;;;;;;;;;;;-146.02;100.00;65310.94;5067525;28;19920;-68
2023/01/05 08:56:36;;;;;;;;;;;;;;;-146.02;100.00;65310.94;5074748;28;19956;-68
2023/01/05 09:00:00;;;;;;;;;;;;;;;-146.02;100.00;65310.94;5056486;28;20280;-68
2023/01/05 09:03:24;;;;;;;;;;;;;;;-146.02;100.00;65310.94;5072021;28;20368;-69
2023/01/05 09:06:47;;;;;;;;;;;;;;;-146.02;100.00;65310.94;5056901;28;20293;-68
2023/01/05 09:10:11;;;;;;;;;;;;;;;-146.02;100.00;65310.94;5056242;28;20007;-68
2023/01/05 09:13:36;;;;;;;;;;;;;;;-146.02;100.00;65310.94;5067947;28;20375;-68
2023/01/05 09:17:00;;;;;;;;;;;;;;;-146.02;100.00;65310.94;5076519;28;19912;-68
2023/01/05 09:20:24;;;;;;;;;;;;;;;-146.02;100.00;65310.94;5092734;28;19918;-68
2023/01/05 09:23:47;;;;;;;;;;;;;;;-146.02;100.00;65310.94;5074060;28;20062;-68
2023/01/05 09:27:14;;;;;;;;;;;;;;;-146.02;100.00;65310.94;5074008;28;19917;-68
2023/01/05 09:30:38;;;;;;;;;;;;;;;-146.02;100.00;65310.94;5061446;28;20284;-68
2023/01/05 09:34:02;;;;;;;;;;;;;;;-146.02;100.00;65310.94;5053931;28;19917;-68
2023/01/05 09:37:26;;;;;;;;;;;;;;;-146.02;100.00;65310.94;5056078;28;19964;-68
2023/01/05 09:40:52;;;;;;;;;;;;;;;-146.02;100.00;65310.94;5067824;28;20048;-68
2023/01/05 09:44:28;;;;;;;;;;;;;;;-146.02;100.00;65310.94;5044151;28;19920;-68
2023/01/05 09:47:54;;;;;;;;;;;;;;;-146.02;100.00;65310.94;5073839;28;20353;-68
2023/01/05 09:51:20;;;;;;;;;;;;;;;-146.02;100.00;65310.94;5073042;28;20385;-68
2023/01/05 09:54:43;;;;;;;;;;;;;;;-146.02;100.00;65310.94;5073234;28;19912;-68
2023/01/05 09:58:16;;;;;;;;;;;;;;;-146.02;100.00;65310.94;5073280;28;20395;-68
2023/01/05 10:01:41;;;;;;;;;;;;;;;-146.02;100.00;65310.94;5073228;28;19913;-68
2023/01/05 10:05:05;;;;;;;;;;;;;;;-146.02;100.00;65310.94;5073604;28;19921;-68
2023/01/05 10:08:28;;;;;;;;;;;;;;;-146.02;100.00;65310.94;5073479;28;19913;-68
2023/01/05 10:15:50;;;;;;;;;;;;;;;-146.02;100.00;65310.94;5093490;28;20343;-68
2023/01/05 10:19:15;;;;;;;;;;;;;;;-146.02;100.00;65310.94;5093967;28;19919;-68
2023/01/05 10:22:45;;;;;;;;;;;;;;;-146.02;100.00;65310.94;5074746;28;20360;-69
2023/01/05 10:26:17;;;;;;;;;;;;;;;-146.02;100.00;65310.94;5093542;28;19942;-69
2023/01/05 10:29:45;;;;;;;;;;;;;;;-146.02;100.00;65310.94;5084341;28;20399;-69
2023/01/05 10:33:23;;;;;;;;;;;;;;;-146.02;100.00;65310.94;5069860;28;19916;-69
2023/01/05 10:36:52;;;;;;;;;;;;;;;-146.02;100.00;65310.94;5058946;28;20011;-68
2023/01/05 10:40:27;;;;;;;;;;;;;;;-146.02;100.00;65310.94;5035439;28;19920;-68
2023/01/05 10:44:02;;;;;;;;;;;;;;;-146.02;100.00;65310.94;5052773;28;20355;-68
2023/01/05 10:47:28;;;;;;;;;;;;;;;-146.02;100.00;65310.94;5073280;28;19920;-68
2023/01/05 10:50:53;;;;;;;;;;;;;;;-146.02;100.00;65310.94;5073189;28;20007;-68
2023/01/05 10:54:37;;;;;;;;;;;;;;;-146.02;100.00;65310.94;5073076;28;19916;-68
2023/01/05 10:58:01;;;;;;;;;;;;;;;-146.02;100.00;65310.94;5073444;28;20287;-68
2023/01/05 11:01:29;;;;;;;;;;;;;;;-146.02;100.00;65310.94;5073245;28;20285;-68
2023/01/05 11:04:54;;;;;;;;;;;;;;;-146.02;100.00;65310.94;5072777;28;19952;-68
2023/01/05 11:08:20;;;;;;;;;;;;;;;-146.02;100.00;65310.94;5055490;28;20375;-68
2023/01/05 11:12:16;;;;;;;;;;;;;;;-146.02;100.00;65310.94;5072789;28;19912;-68
2023/01/05 11:15:42;;;;;;;;;;;;;;;-146.02;100.00;65310.94;5008698;28;19912;-68
2023/01/05 11:19:11;;;;;;;;;;;;;;;-146.02;100.00;65310.94;5052811;28;19920;-68
2023/01/05 11:22:38;;;;;;;;;;;;;;;-146.02;100.00;65310.94;5052808;28;19913;-68
2023/01/05 11:26:16;;;;;;;;;;;;;;;-146.02;100.00;65310.94;5036562;28;19966;-68
2023/01/05 11:29:40;;;;;;;;;;;;;;;-146.02;100.00;65310.94;5039098;28;20233;-68
2023/01/05 11:33:11;;;;;;;;;;;;;;;-146.02;100.00;65310.94;5055996;28;20289;-69
2023/01/05 11:36:36;;;;;;;;;;;;;;;-146.02;100.00;65310.94;5056372;28;19913;-68
2023/01/05 11:40:01;;;;;;;;;;;;;;;-146.02;100.00;65310.94;5038283;28;19920;-68
2023/01/05 11:43:27;;;;;;;;;;;;;;;-146.02;100.00;65310.94;5075764;28;19924;-68
2023/01/05 11:46:51;;;;;;;;;;;;;;;-146.02;100.00;65310.94;5058081;28;19917;-68
2023/01/05 11:50:20;;;;;;;;;;;;;;;-146.02;100.00;65310.94;5076565;28;19958;-68
2023/01/05 11:53:44;;;;;;;;;;;;;;;-146.02;100.00;65310.94;5076774;28;19913;-68
2023/01/05 11:57:13;;;;;;;;;;;;;;;-146.02;100.00;65310.94;5076003;28;20023;-68
2023/01/05 12:00:49;;;;;;;;;;;;;;;-146.02;100.00;65310.94;5075932;28;19920;-68
2023/01/05 12:04:19;;;;;;;;;;;;;;;-146.02;100.00;65310.94;5057965;28;20348;-68
2023/01/05 12:07:48;;;;;;;;;;;;;;;-146.02;100.00;65310.94;5075707;28;19917;-69
2023/01/05 12:11:12;;;;;;;;;;;;;;;-146.02;100.00;65310.94;5075677;28;19951;-69
2023/01/05 12:14:35;;;;;;;;;;;;;;;-146.02;100.00;65310.94;5057517;28;19965;-69
2023/01/05 12:18:20;;;;;;;;;;;;;;;-146.02;100.00;65310.94;5075660;28;20288;-69
2023/01/05 12:21:52;;;;;;;;;;;;;;;-146.02;100.00;65310.94;5007281;28;19913;-69
2023/01/05 12:25:40;;;;;;;;;;;;;;;-146.02;100.00;65310.94;5054812;28;20349;-68
2023/01/05 12:29:10;;;;;;;;;;;;;;;-146.02;100.00;65310.94;5054670;28;19920;-68
2023/01/05 12:32:56;;;;;;;;;;;;;;;-146.02;100.00;65310.94;5055193;28;19956;-68
2023/01/05 12:36:46;;;;;;;;;;;;;;;-146.02;100.00;65310.94;5072163;28;19920;-68
2023/01/05 12:40:10;;;;;;;;;;;;;;;-146.02;100.00;65310.94;5074718;28;19923;-68
2023/01/05 12:43:36;;;;;;;;;;;;;;;-146.02;100.00;65310.94;5074747;28;19924;-68
2023/01/05 12:47:00;;;;;;;;;;;;;;;-146.02;100.00;65310.94;5074597;28;20265;-68
2023/01/05 12:50:27;;;;;;;;;;;;;;;-146.02;100.00;65310.94;5074597;28;19919;-68
2023/01/05 12:54:01;;;;;;;;;;;;;;;-146.02;100.00;65310.94;5056647;28;19912;-68
2023/01/05 12:57:28;;;;;;;;;;;;;;;-146.02;100.00;65310.94;5057399;28;19958;-68
2023/01/05 13:00:56;;;;;;;;;;;;;;;-146.02;100.00;65310.94;5074529;28;20280;-69
2023/01/05 13:04:20;;;;;;;;;;;;;;;-146.02;100.00;65310.94;5074658;28;19936;-69
2023/01/05 13:07:55;;;;;;;;;;;;;;;-146.02;100.00;65310.94;5074400;28;20365;-69
2023/01/05 13:11:24;;;;;;;;;;;;;;;-146.02;100.00;65310.94;5057354;28;20003;-69
2023/01/05 13:14:58;;;;;;;;;;;;;;;-146.02;100.00;65310.94;5059334;28;19916;-69
2023/01/05 13:18:24;;;;;;;;;;;;;;;-146.02;100.00;65310.94;5071158;28;20011;-69
2023/01/05 13:21:48;;;;;;;;;;;;;;;-146.02;100.00;65310.94;5036351;28;19942;-69
2023/01/05 13:25:23;;;;;;;;;;;;;;;-146.02;100.00;65310.94;5054323;28;20008;-69
2023/01/05 13:28:48;;;;;;;;;;;;;;;-146.02;100.00;65310.94;5054196;28;19921;-69
2023/01/05 13:32:17;;;;;;;;;;;;;;;-146.02;100.00;65310.94;5061491;28;20004;-69
2023/01/05 13:35:49;;;;;;;;;;;;;;;-146.02;100.00;65310.94;5053350;28;19923;-69
2023/01/05 13:39:38;;;;;;;;;;;;;;;-146.02;100.00;65310.94;5054630;28;20008;-69
2023/01/05 13:43:33;;;;;;;;;;;;;;;-146.02;100.00;65310.94;5053849;28;20041;-69
2023/01/05 13:47:04;;;;;;;;;;;;;;;-146.02;100.00;65310.94;5054113;28;19921;-69
2023/01/05 13:50:56;;;;;;;;;;;;;;;-146.02;100.00;65310.94;5053862;28;20003;-70
2023/01/05 13:54:39;;;;;;;;;;;;;;;-146.02;100.00;65310.94;5053417;28;19963;-69
2023/01/05 13:58:04;;;;;;;;;;;;;;;-146.02;100.00;65310.94;5053520;28;20381;-69
2023/01/05 14:01:36;;;;;;;;;;;;;;;-146.02;100.00;65310.94;5053622;28;19920;-69
2023/01/05 14:05:00;;;;;;;;;;;;;;;-146.02;100.00;65310.94;5050992;28;19991;-69
2023/01/05 14:08:27;;;;;;;;;;;;;;;-146.02;100.00;65310.94;5073520;28;20026;-69
2023/01/05 14:12:06;;;;;;;;;;;;;;;-146.02;100.00;65310.94;5055695;28;19913;-69
2023/01/05 14:15:32;;;;;;;;;;;;;;;-146.02;100.00;65310.94;5071768;28;19913;-70
2023/01/05 14:19:16;;;;;;;;;;;;;;;-146.02;100.00;65310.94;5053137;28;19958;-69
2023/01/05 14:22:41;;;;;;;;;;;;;;;-146.02;100.00;65310.94;5002526;28;19974;-69
2023/01/05 14:26:05;;;;;;;;;;;;;;;-146.02;100.00;65310.94;5053060;28;19987;-68
2023/01/05 14:29:47;;;;;;;;;;;;;;;-146.02;100.00;65310.94;5037589;28;20392;-69
2023/01/05 14:33:11;;;;;;;;;;;;;;;-146.02;100.00;65310.94;5061826;28;19917;-69
2023/01/05 14:36:43;;;;;;;;;;;;;;;-146.02;100.00;65310.94;5053199;28;19958;-69
2023/01/05 14:40:27;;;;;;;;;;;;;;;-146.02;100.00;65310.94;5052912;28;19913;-69
2023/01/05 14:43:56;;;;;;;;;;;;;;;-146.02;100.00;65310.94;5052777;28;19928;-70
2023/01/05 14:47:40;;;;;;;;;;;;;;;-146.02;100.00;65310.94;5052932;28;20361;-69
2023/01/05 14:51:25;;;;;;;;;;;;;;;-146.02;100.00;65310.94;5035241;28;20011;-69
2023/01/05 14:54:55;;;;;;;;;;;;;;;-146.02;100.00;65310.94;5048311;28;20530;-70
2023/01/05 14:58:36;;;;;;;;;;;;;;;-146.02;100.00;65310.94;5072928;28;19912;-70
2023/01/05 15:02:03;;;;;;;;;;;;;;;-146.02;100.00;65310.94;5072775;28;20377;-69
2023/01/05 15:05:28;;;;;;;;;;;;;;;-146.02;100.00;65310.94;5072828;28;20299;-69
2023/01/05 15:09:01;;;;;;;;;;;;;;;-146.02;100.00;65310.94;5075589;28;20295;-69
2023/01/05 15:12:41;;;;;;;;;;;;;;;-146.02;100.00;65310.94;5060444;28;20003;-69
2023/01/05 15:16:15;;;;;;;;;;;;;;;-146.02;100.00;65310.94;5097051;28;19933;-69
2023/01/05 15:19:48;;;;;;;;;;;;;;;-146.02;100.00;65310.94;5097620;28;19916;-69
2023/01/05 15:23:30;;;;;;;;;;;;;;;-146.02;100.00;65310.94;5079165;28;20265;-69
2023/01/05 15:27:06;;;;;;;;;;;;;;;-146.02;100.00;65310.94;5075472;28;20030;-69
2023/01/05 15:30:42;;;;;;;;;;;;;;;-146.02;100.00;65310.94;5075920;28;19913;-69
2023/01/05 15:34:25;;;;;;;;;;;;;;;-146.02;100.00;65310.94;5054489;28;19916;-69
2023/01/05 15:37:51;;;;;;;;;;;;;;;-146.02;100.00;65310.94;5038502;28;19913;-70
2023/01/05 15:41:18;;;;;;;;;;;;;;;-146.02;100.00;65310.94;5056178;28;19913;-70
2023/01/05 15:44:45;;;;;;;;;;;;;;;-146.02;100.00;65310.94;5069160;28;19973;-70
2023/01/05 15:48:13;;;;;;;;;;;;;;;-146.02;100.00;65310.94;5058049;28;19920;-69
2023/01/05 15:51:36;;;;;;;;;;;;;;;-146.02;100.00;65310.94;5075721;28;19912;-70
2023/01/05 15:55:02;;;;;;;;;;;;;;;-146.02;100.00;65310.94;5075872;28;19919;-70
2023/01/05 15:58:28;;;;;;;;;;;;;;;-146.02;100.00;65310.94;5075668;28;19912;-69
2023/01/05 16:01:51;;;;;;;;;;;;;;;-146.02;100.00;65310.94;5075590;28;20398;-69
2023/01/05 16:05:16;;;;;;;;;;;;;;;-146.02;100.00;65310.94;5057797;28;19913;-69
2023/01/05 16:08:42;;;;;;;;;;;;;;;-146.02;100.00;65310.94;5059629;28;20363;-70
2023/01/05 16:12:21;;;;;;;;;;;;;;;-146.02;100.00;65310.94;5055573;28;19912;-70
2023/01/05 16:15:49;;;;;;;;;;;;;;;-146.02;100.00;65310.94;5095738;28;19912;-70
2023/01/05 16:19:25;;;;;;;;;;;;;;;-146.02;100.00;65310.94;5094412;28;20322;-70
2023/01/05 16:22:49;;;;;;;;;;;;;;;-146.02;100.00;65310.94;5086168;28;20240;-70
2023/01/05 16:26:15;;;;;;;;;;;;;;;-146.02;100.00;65310.94;5075262;28;20292;-71
2023/01/05 16:29:43;;;;;;;;;;;;;;;-146.02;100.00;65310.94;5072105;28;20023;-71
2023/01/05 16:33:10;;;;;;;;;;;;;;;-146.02;100.00;65310.94;5066386;28;19913;-71
2023/01/05 16:36:34;;;;;;;;;;;;;;;-146.02;100.00;65310.94;5057045;28;19935;-71
2023/01/05 16:40:00;;;;;;;;;;;;;;;-146.02;100.00;65310.94;5050501;28;19912;-71
2023/01/05 16:43:30;;;;;;;;;;;;;;;-146.02;100.00;65310.94;5054924;28;19920;-71
2023/01/05 16:47:07;;;;;;;;;;;;;;;-146.02;100.00;65310.94;5054932;28;19913;-70
2023/01/05 16:50:36;;;;;;;;;;;;;;;-146.02;100.00;65310.94;5054796;28;19923;-71
2023/01/05 16:54:10;;;;;;;;;;;;;;;-146.02;100.00;65310.94;5054768;28;19920;-71
2023/01/05 16:57:41;;;;;;;;;;;;;;;-146.02;100.00;65310.94;5054700;28;19913;-71
2023/01/05 17:01:08;;;;;;;;;;;;;;;-146.02;100.00;65310.94;5054492;28;19952;-71
2023/01/05 17:04:32;;;;;;;;;;;;;;;-146.02;100.00;65310.94;5037303;28;19962;-71
2023/01/05 17:07:56;;;;;;;;;;;;;;;-146.02;100.00;65310.94;5054394;28;19916;-71
2023/01/05 17:11:20;;;;;;;;;;;;;;;-146.02;100.00;65310.94;5054621;28;19917;-71
2023/01/05 17:14:45;;;;;;;;;;;;;;;-146.02;100.00;65310.94;5087570;28;20264;-71
2023/01/05 17:18:22;;;;;;;;;;;;;;;-146.02;100.00;65310.94;5092820;28;20374;-71
2023/01/05 17:21:52;;;;;;;;;;;;;;;-146.02;100.00;65310.94;5074220;28;19939;-71
2023/01/05 17:25:16;;;;;;;;;;;;;;;-146.02;100.00;65310.94;5054129;28;20404;-71
2023/01/05 17:28:40;;;;;;;;;;;;;;;-146.02;100.00;65310.94;5036479;28;19925;-71
2023/01/05 17:32:04;;;;;;;;;;;;;;;-146.02;100.00;65310.94;5038658;28;20357;-71
2023/01/05 17:35:28;;;;;;;;;;;;;;;-146.02;100.00;65310.94;5054836;28;20264;-71
2023/01/05 17:38:52;;;;;;;;;;;;;;;-146.02;100.00;65310.94;5036002;28;20066;-71
2023/01/05 17:45:58;;;;;;;;;;;;;;;-146.02;100.00;65310.94;5036148;28;19927;-71
2023/01/05 17:49:22;;;;;;;;;;;;;;;-146.02;100.00;65310.94;5068655;28;19928;-71
2023/01/05 17:52:46;;;;;;;;;;;;;;;-146.02;100.00;65310.94;5061576;28;19912;-71
2023/01/05 17:56:10;;;;;;;;;;;;;;;-146.02;100.00;65310.94;5056016;28;19955;-71
2023/01/05 17:59:34;;;;;;;;;;;;;;;-146.02;100.00;65310.94;5071030;28;19913;-71